Chicago, Illinois
Traffic Map
Current Weather Conditions
Chicago, Illinois
Broken Clouds
Broken Clouds
28°
Feels Like: 29°
Wind Chill: 28° Ceiling: 25000
Heat Index: 29° Visibility: 10mi
Dew Point: 19° Wind: 23mph
Humidity: 58% Direction: 240° (WSW)
Pressure: 29.74in Gusts: 29mph
Raw Report DataKMDW 171853Z 24020G25KT 10SM FEW039 SCT055 BKN250 28/19 A2974 RMK AO2 PK WND 24027/1822 SLP058 T02780189
Traffic Incident Summary
Active as of:
Severity:
Category:
InformationThere was an issue retrieving the traffic information for this location. Please try a different location or try again shortly.
Advertisements